Time;durP1;ratioP1;P1;durP2;ratioP2;P2;SDS_P1;SDS_P2;PMS_P1;PMS_P2;Temp;Humidity;BMP_temperature;BMP_pressure;BME280_temperature;BME280_humidity;BME280_pressure;Samples;Min_cycle;Max_cycle;Signal;HPM_P1;HPM_P2
2021/11/26 00:01:07;;;;;;;106.70;28.40;;;;;;;-145.69;100.00;72325.81;5116683;28;20266;-76
2021/11/26 00:03:35;;;;;;;101.37;27.40;;;;;;;-145.69;100.00;72321.81;5116498;28;20197;-76
2021/11/26 00:06:01;;;;;;;105.63;30.13;;;;;;;-145.69;100.00;72317.84;5116327;28;20651;-76
2021/11/26 00:08:28;;;;;;;91.97;27.30;;;;;;;-145.69;100.00;72319.81;5116464;28;20197;-76
2021/11/26 00:10:58;;;;;;;113.33;28.53;;;;;;;-145.69;100.00;72317.84;5116172;28;20250;-76
2021/11/26 00:13:29;;;;;;;105.33;29.03;;;;;;;-145.69;100.00;72323.81;5116435;28;20205;-76
2021/11/26 00:16:02;;;;;;;114.10;28.13;;;;;;;-145.69;100.00;72329.78;5116288;28;20659;-76
2021/11/26 00:18:30;;;;;;;114.40;28.97;;;;;;;-145.69;100.00;72317.84;5115715;28;20220;-76
2021/11/26 00:21:00;;;;;;;108.93;28.83;;;;;;;-145.69;100.00;72321.81;5115046;28;20201;-76
2021/11/26 00:23:26;;;;;;;117.33;28.97;;;;;;;-145.69;100.00;72325.81;5115794;28;20276;-76
2021/11/26 00:25:53;;;;;;;95.03;26.17;;;;;;;-145.69;100.00;72311.88;5116110;28;20209;-76
2021/11/26 00:28:21;;;;;;;115.30;29.27;;;;;;;-145.69;100.00;72297.94;5115892;28;20265;-76
2021/11/26 00:30:50;;;;;;;117.70;28.17;;;;;;;-145.69;100.00;72301.91;5115791;28;20644;-76
2021/11/26 00:33:16;;;;;;;111.80;26.93;;;;;;;-145.69;100.00;72301.91;5115863;28;20197;-76
2021/11/26 00:35:43;;;;;;;109.07;27.17;;;;;;;-145.69;100.00;72309.88;5115802;28;20197;-76
2021/11/26 00:38:11;;;;;;;109.20;28.33;;;;;;;-145.69;100.00;72317.84;5116071;28;20232;-76
2021/11/26 00:40:37;;;;;;;100.20;26.83;;;;;;;-145.69;100.00;72307.88;5115601;28;20201;-76
2021/11/26 00:43:04;;;;;;;98.37;27.03;;;;;;;-145.69;100.00;72313.84;5115961;28;20197;-76
2021/11/26 00:45:31;;;;;;;110.60;27.33;;;;;;;-145.69;100.00;72297.94;5116079;27;20201;-76
2021/11/26 00:47:57;;;;;;;107.57;28.37;;;;;;;-145.69;100.00;72295.94;5117305;27;20193;-76
2021/11/26 00:50:25;;;;;;;95.67;25.50;;;;;;;-145.69;100.00;72305.91;5115408;28;20197;-76
2021/11/26 00:52:51;;;;;;;121.47;29.33;;;;;;;-145.69;100.00;72311.88;5115697;28;20193;-75
2021/11/26 00:55:19;;;;;;;101.90;28.00;;;;;;;-145.69;100.00;72309.88;5115565;28;20215;-75
2021/11/26 00:57:46;;;;;;;120.03;27.67;;;;;;;-145.69;100.00;72313.84;5115270;28;20236;-76
2021/11/26 01:00:15;;;;;;;125.43;28.00;;;;;;;-145.69;100.00;72315.84;5115482;28;20205;-75
2021/11/26 01:02:42;;;;;;;121.30;28.50;;;;;;;-145.69;100.00;72309.88;5115163;28;20219;-76
2021/11/26 01:05:12;;;;;;;139.57;31.83;;;;;;;-145.69;100.00;72309.88;5115043;28;20262;-76
2021/11/26 01:07:39;;;;;;;149.03;30.23;;;;;;;-145.69;100.00;72313.84;5115490;28;20194;-77
2021/11/26 01:10:06;;;;;;;137.77;31.10;;;;;;;-145.69;100.00;72301.91;5115105;28;20201;-76
2021/11/26 01:12:37;;;;;;;176.13;31.60;;;;;;;-145.69;100.00;72295.94;5115192;28;20247;-76
2021/11/26 01:15:05;;;;;;;142.70;30.50;;;;;;;-145.69;100.00;72293.94;5114911;28;20288;-76
2021/11/26 01:17:32;;;;;;;145.47;31.00;;;;;;;-145.69;100.00;72301.91;5114909;28;20205;-75
2021/11/26 01:19:59;;;;;;;140.63;28.60;;;;;;;-145.69;100.00;72293.94;5114765;28;20229;-76
2021/11/26 01:22:25;;;;;;;135.70;27.43;;;;;;;-145.69;100.00;72293.94;5135648;27;20193;-76
2021/11/26 01:24:52;;;;;;;117.70;25.43;;;;;;;-145.69;100.00;72293.94;5135306;27;20204;-76
2021/11/26 01:27:18;;;;;;;140.47;26.67;;;;;;;-145.69;100.00;72286.00;5135257;27;20205;-76
2021/11/26 01:29:46;;;;;;;132.67;28.37;;;;;;;-145.69;100.00;72291.97;5129028;27;20243;-76
2021/11/26 01:32:12;;;;;;;138.90;28.93;;;;;;;-145.69;100.00;72297.94;5133394;27;20651;-75
2021/11/26 01:34:39;;;;;;;159.57;28.67;;;;;;;-145.69;100.00;72297.94;5135326;27;20212;-75
2021/11/26 01:37:05;;;;;;;139.13;26.57;;;;;;;-145.69;100.00;72289.97;5135173;27;20196;-76
2021/11/26 01:39:35;;;;;;;133.33;25.97;;;;;;;-145.69;100.00;72299.91;5121410;27;20571;-75
2021/11/26 01:42:01;;;;;;;121.63;26.77;;;;;;;-145.69;100.00;72301.91;5114463;28;20205;-75
2021/11/26 01:44:27;;;;;;;134.17;26.30;;;;;;;-145.69;100.00;72286.00;5114194;28;20201;-75
2021/11/26 01:46:55;;;;;;;144.77;27.27;;;;;;;-145.69;100.00;72286.00;5114411;28;20297;-76
2021/11/26 01:49:22;;;;;;;146.97;27.30;;;;;;;-145.69;100.00;72278.03;5114324;28;20205;-75
2021/11/26 01:51:48;;;;;;;122.50;24.07;;;;;;;-145.69;100.00;72274.06;5114400;28;20202;-78
2021/11/26 01:54:15;;;;;;;144.33;28.77;;;;;;;-145.69;100.00;72278.03;5113968;28;20193;-76
2021/11/26 01:56:44;;;;;;;127.43;27.33;;;;;;;-145.69;100.00;72280.03;5114066;28;20197;-77
2021/11/26 01:59:10;;;;;;;133.60;27.70;;;;;;;-145.69;100.00;72274.06;5113881;28;20282;-77
2021/11/26 02:01:37;;;;;;;163.63;31.03;;;;;;;-145.69;100.00;72282.00;5114026;28;20202;-78
2021/11/26 02:04:05;;;;;;;152.10;31.20;;;;;;;-145.69;100.00;72282.00;5113980;28;20288;-78
2021/11/26 02:06:31;;;;;;;176.87;30.83;;;;;;;-145.69;100.00;72289.97;5113795;28;20682;-77
2021/11/26 02:09:05;;;;;;;155.07;29.23;;;;;;;-145.69;100.00;72276.03;5113948;28;20568;-77
2021/11/26 02:11:32;;;;;;;149.60;30.40;;;;;;;-145.69;100.00;72272.06;5113714;28;20205;-77
2021/11/26 02:13:59;;;;;;;143.13;29.87;;;;;;;-145.69;100.00;72278.03;5113894;28;20197;-77
2021/11/26 02:16:25;;;;;;;135.63;27.50;;;;;;;-145.69;100.00;72266.09;5113822;28;20309;-78
2021/11/26 02:18:52;;;;;;;152.30;29.17;;;;;;;-145.69;100.00;72252.16;5113571;28;20278;-77
2021/11/26 02:21:22;;;;;;;151.23;29.30;;;;;;;-145.69;100.00;72278.03;5113939;28;20533;-77
2021/11/26 02:23:49;;;;;;;159.27;29.07;;;;;;;-145.69;100.00;72266.09;5113721;28;20208;-77
2021/11/26 02:26:16;;;;;;;147.07;30.20;;;;;;;-145.69;100.00;72268.06;5113664;28;20201;-77
2021/11/26 02:28:43;;;;;;;145.67;27.87;;;;;;;-145.69;100.00;72260.13;5113875;28;20243;-77
2021/11/26 02:31:09;;;;;;;130.43;28.53;;;;;;;-145.69;100.00;72268.06;5113822;28;20578;-78
2021/11/26 02:33:36;;;;;;;136.03;27.93;;;;;;;-145.69;100.00;72270.06;5113789;28;20205;-77
2021/11/26 02:36:03;;;;;;;143.57;29.13;;;;;;;-145.69;100.00;72274.06;5113519;28;20208;-78
2021/11/26 02:38:31;;;;;;;148.70;29.27;;;;;;;-145.69;100.00;72278.03;5113417;28;20317;-77
2021/11/26 02:40:57;;;;;;;139.47;29.23;;;;;;;-145.69;100.00;72278.03;5113648;28;20205;-77
2021/11/26 02:43:24;;;;;;;141.87;30.13;;;;;;;-145.69;100.00;72266.09;5113148;28;20201;-77
2021/11/26 02:45:51;;;;;;;149.90;30.57;;;;;;;-145.69;100.00;72264.09;5113327;28;20291;-77
2021/11/26 02:48:18;;;;;;;156.30;30.60;;;;;;;-145.69;100.00;72264.09;5113562;28;20223;-77
2021/11/26 02:50:49;;;;;;;175.00;32.57;;;;;;;-145.69;100.00;72270.06;5129658;27;20196;-77
2021/11/26 02:53:16;;;;;;;187.73;32.77;;;;;;;-145.69;100.00;72270.06;5133768;28;20196;-78
2021/11/26 02:55:44;;;;;;;326.57;35.00;;;;;;;-145.69;100.00;72276.03;5133900;27;20587;-78
2021/11/26 02:58:10;;;;;;;218.63;34.17;;;;;;;-145.69;100.00;72274.06;5133956;27;20196;-77
2021/11/26 03:00:40;;;;;;;187.43;33.30;;;;;;;-145.69;100.00;72266.09;5133833;28;20250;-77
2021/11/26 03:03:09;;;;;;;437.03;37.50;;;;;;;-145.69;100.00;72266.09;5133838;27;20205;-77
2021/11/26 03:05:36;;;;;;;459.80;37.03;;;;;;;-145.69;100.00;72274.06;5133724;28;20208;-77
2021/11/26 03:08:03;;;;;;;197.80;32.50;;;;;;;-145.69;100.00;72274.06;5133804;28;20201;-77
2021/11/26 03:10:30;;;;;;;152.37;30.33;;;;;;;-145.69;100.00;72262.09;5133607;27;20647;-77
2021/11/26 03:13:00;;;;;;;252.33;32.87;;;;;;;-145.69;100.00;72258.13;5133635;28;20206;-78
2021/11/26 03:15:27;;;;;;;158.97;31.40;;;;;;;-145.69;100.00;72250.16;5133598;28;20620;-78
2021/11/26 03:17:55;;;;;;;172.27;30.43;;;;;;;-145.69;100.00;72240.22;5133665;28;20196;-77
2021/11/26 03:20:22;;;;;;;291.60;32.57;;;;;;;-145.69;100.00;72240.22;5133302;28;20697;-77
2021/11/26 03:22:50;;;;;;;309.67;33.90;;;;;;;-145.69;100.00;72252.16;5133724;27;20200;-77
2021/11/26 03:25:17;;;;;;;193.40;28.47;;;;;;;-145.69;100.00;72250.16;5133661;27;20292;-77
2021/11/26 03:27:44;;;;;;;165.77;30.90;;;;;;;-145.69;100.00;72236.22;5133762;28;20201;-77
2021/11/26 03:30:15;;;;;;;151.30;27.73;;;;;;;-145.69;100.00;72250.16;5133815;27;20654;-77
2021/11/26 03:32:42;;;;;;;194.87;34.57;;;;;;;-145.69;100.00;72236.22;5133474;28;20201;-77
2021/11/26 03:35:10;;;;;;;232.40;35.90;;;;;;;-145.69;100.00;72240.22;5133683;27;20204;-77
2021/11/26 03:37:38;;;;;;;382.03;36.10;;;;;;;-145.69;100.00;72240.22;5133775;28;20245;-77
2021/11/26 03:40:07;;;;;;;268.47;34.37;;;;;;;-145.69;100.00;72246.19;5133537;27;20228;-77
2021/11/26 03:42:34;;;;;;;330.17;37.03;;;;;;;-145.69;100.00;72242.22;5133566;27;20278;-77
2021/11/26 03:45:01;;;;;;;313.37;36.23;;;;;;;-145.69;100.00;72244.19;5133406;28;20201;-79
2021/11/26 03:47:29;;;;;;;177.33;31.87;;;;;;;-145.69;100.00;72230.25;5133221;27;20201;-78
2021/11/26 03:49:55;;;;;;;276.50;34.30;;;;;;;-145.69;100.00;72230.25;5133235;28;20747;-78
2021/11/26 03:52:23;;;;;;;231.27;32.07;;;;;;;-145.69;100.00;72236.22;5133536;28;20196;-79
2021/11/26 03:54:50;;;;;;;417.27;38.47;;;;;;;-145.69;100.00;72234.25;5133480;27;20563;-78
2021/11/26 03:57:17;;;;;;;302.70;37.00;;;;;;;-145.69;100.00;72240.22;5136076;27;20253;-78
2021/11/26 03:59:43;;;;;;;372.93;37.47;;;;;;;-145.69;100.00;72242.22;5136946;27;20235;-78
2021/11/26 04:02:10;;;;;;;235.17;36.30;;;;;;;-145.69;100.00;72238.22;5136744;27;20200;-78
2021/11/26 04:04:38;;;;;;;267.03;36.70;;;;;;;-145.69;100.00;72232.25;5136749;27;20601;-78
2021/11/26 04:07:04;;;;;;;265.17;36.10;;;;;;;-145.69;100.00;72236.22;5137043;27;20192;-78
2021/11/26 04:09:31;;;;;;;207.57;34.07;;;;;;;-145.69;100.00;72222.31;5136788;27;20200;-78
2021/11/26 04:11:57;;;;;;;539.90;43.17;;;;;;;-145.69;100.00;72230.25;5136760;27;20265;-78
2021/11/26 04:14:25;;;;;;;259.83;31.67;;;;;;;-145.69;100.00;72222.31;5136537;27;20204;-78
2021/11/26 04:16:52;;;;;;;312.50;36.33;;;;;;;-145.69;100.00;72218.31;5136749;27;20203;-79
2021/11/26 04:19:18;;;;;;;390.77;38.93;;;;;;;-145.69;100.00;72226.28;5136238;27;20228;-78
2021/11/26 04:21:46;;;;;;;253.77;34.17;;;;;;;-145.69;100.00;72224.28;5136509;27;20586;-78
2021/11/26 04:24:13;;;;;;;210.17;36.63;;;;;;;-145.69;100.00;72218.31;5136523;27;20200;-79
2021/11/26 04:26:39;;;;;;;259.57;36.63;;;;;;;-145.69;100.00;72218.31;5136521;27;20253;-78
2021/11/26 04:29:06;;;;;;;418.40;39.03;;;;;;;-145.69;100.00;72214.34;5136324;27;20608;-79
2021/11/26 04:31:32;;;;;;;212.60;32.50;;;;;;;-145.69;100.00;72216.34;5136313;27;20199;-78
2021/11/26 04:33:59;;;;;;;478.87;40.90;;;;;;;-145.69;100.00;72214.34;5136401;27;20200;-78
2021/11/26 04:36:25;;;;;;;393.23;37.53;;;;;;;-145.69;100.00;72212.34;5136209;27;20201;-78
2021/11/26 04:38:53;;;;;;;179.97;31.70;;;;;;;-145.69;100.00;72214.34;5136097;27;20682;-78
2021/11/26 04:41:19;;;;;;;247.63;34.93;;;;;;;-145.69;100.00;72208.38;5135646;27;20250;-79
2021/11/26 04:43:49;;;;;;;178.17;32.23;;;;;;;-145.69;100.00;72208.38;5133525;27;20192;-78
2021/11/26 04:46:15;;;;;;;335.13;36.77;;;;;;;-145.69;100.00;72210.38;5135884;27;20647;-78
2021/11/26 04:48:41;;;;;;;266.10;36.47;;;;;;;-145.69;100.00;72202.41;5136034;27;20205;-79
2021/11/26 04:51:08;;;;;;;398.27;37.83;;;;;;;-145.69;100.00;72212.34;5135992;27;20679;-79
2021/11/26 04:53:34;;;;;;;342.23;36.33;;;;;;;-145.69;100.00;72214.34;5136178;27;20204;-78
2021/11/26 04:56:02;;;;;;;219.77;32.53;;;;;;;-145.69;100.00;72206.38;5135817;27;20257;-79
2021/11/26 04:58:34;;;;;;;241.60;32.83;;;;;;;-145.69;100.00;72198.41;5135797;27;20207;-79
2021/11/26 05:01:00;;;;;;;215.87;32.17;;;;;;;-145.69;100.00;72192.44;5135930;27;20220;-79
2021/11/26 05:03:27;;;;;;;304.37;33.93;;;;;;;-145.69;100.00;72194.44;5135825;27;20647;-78
2021/11/26 05:05:53;;;;;;;258.43;34.90;;;;;;;-145.69;100.00;72196.44;5135736;27;20200;-78
2021/11/26 05:08:21;;;;;;;252.90;34.23;;;;;;;-145.69;100.00;72192.44;5135229;27;20664;-78
2021/11/26 05:10:52;;;;;;;234.10;33.63;;;;;;;-145.69;100.00;72190.47;5135468;27;20205;-78
2021/11/26 05:13:20;;;;;;;210.83;32.60;;;;;;;-145.69;100.00;72184.50;5135727;27;20201;-78
2021/11/26 05:15:48;;;;;;;215.07;32.90;;;;;;;-145.69;100.00;72182.50;5135593;27;20669;-78
2021/11/26 05:18:15;;;;;;;215.60;31.00;;;;;;;-145.69;100.00;72170.56;5135928;27;20200;-78
2021/11/26 05:20:42;;;;;;;239.73;34.30;;;;;;;-145.69;100.00;72162.59;5135040;27;20258;-78
2021/11/26 05:23:09;;;;;;;207.87;32.53;;;;;;;-145.69;100.00;72150.66;5135500;27;20208;-78
2021/11/26 05:25:36;;;;;;;239.33;33.63;;;;;;;-145.69;100.00;72154.63;5135366;27;20257;-77
2021/11/26 05:28:03;;;;;;;231.67;34.87;;;;;;;-145.69;100.00;72156.63;5135490;27;20257;-78
2021/11/26 05:30:31;;;;;;;182.10;31.07;;;;;;;-145.69;100.00;72150.66;5135198;27;20651;-78
2021/11/26 05:32:58;;;;;;;235.93;35.03;;;;;;;-145.69;100.00;72150.66;5135235;27;20601;-78
2021/11/26 05:35:24;;;;;;;235.47;39.07;;;;;;;-145.69;100.00;72140.69;5135048;27;20196;-77
2021/11/26 05:37:51;;;;;;;241.63;37.20;;;;;;;-145.69;100.00;72120.81;5135024;27;20197;-77
2021/11/26 05:40:17;;;;;;;197.77;34.63;;;;;;;-145.69;100.00;72102.88;5135254;27;20285;-77
2021/11/26 05:42:44;;;;;;;226.40;37.07;;;;;;;-145.69;100.00;72106.88;5135097;27;20197;-78
2021/11/26 05:45:12;;;;;;;194.17;36.93;;;;;;;-145.69;100.00;72114.81;5134998;27;20196;-78
2021/11/26 05:47:42;;;;;;;203.90;36.27;;;;;;;-145.69;100.00;72118.81;5135001;27;20719;-78
2021/11/26 05:50:14;;;;;;;203.80;34.50;;;;;;;-145.69;100.00;72118.81;5135107;27;20573;-78
2021/11/26 05:52:41;;;;;;;197.17;33.10;;;;;;;-145.69;100.00;72134.72;5135242;27;20207;-78
2021/11/26 05:55:10;;;;;;;198.10;34.30;;;;;;;-145.69;100.00;72142.69;5134944;27;20225;-78
2021/11/26 05:57:40;;;;;;;183.93;32.23;;;;;;;-145.69;100.00;72136.72;5135076;27;20192;-78
2021/11/26 06:00:11;;;;;;;203.60;33.13;;;;;;;-145.69;100.00;72142.69;5134599;27;20687;-78
2021/11/26 06:02:38;;;;;;;190.07;31.83;;;;;;;-145.69;100.00;72142.69;5134918;27;20678;-78
2021/11/26 06:05:06;;;;;;;201.90;32.97;;;;;;;-145.69;100.00;72138.72;5134608;27;20245;-78
2021/11/26 06:07:34;;;;;;;179.57;31.17;;;;;;;-145.69;100.00;72126.78;5134890;27;20261;-78
2021/11/26 06:10:01;;;;;;;161.37;30.93;;;;;;;-145.69;100.00;72098.91;5134768;27;20205;-77
2021/11/26 06:12:27;;;;;;;159.20;30.97;;;;;;;-145.69;100.00;72092.94;5134693;27;20203;-78
2021/11/26 06:14:55;;;;;;;155.83;30.37;;;;;;;-145.69;100.00;72094.94;5134598;27;20193;-78
2021/11/26 06:17:22;;;;;;;148.63;30.77;;;;;;;-145.69;100.00;72090.94;5134352;27;20602;-77
2021/11/26 06:19:49;;;;;;;141.73;30.63;;;;;;;-145.69;100.00;72114.81;5133531;27;20236;-78
2021/11/26 06:22:16;;;;;;;131.80;28.60;;;;;;;-145.69;100.00;72108.84;5134403;27;20540;-77
2021/11/26 06:24:43;;;;;;;143.23;28.53;;;;;;;-145.69;100.00;72090.94;5134420;27;20250;-78
2021/11/26 06:27:12;;;;;;;133.03;27.93;;;;;;;-145.69;100.00;72098.91;5134443;27;20209;-78
2021/11/26 06:29:41;;;;;;;128.90;27.70;;;;;;;-145.69;100.00;72108.84;5134338;27;20200;-79
2021/11/26 06:32:08;;;;;;;145.53;28.37;;;;;;;-145.69;100.00;72108.84;5134073;27;20201;-79
2021/11/26 06:34:38;;;;;;;137.13;28.53;;;;;;;-145.69;100.00;72108.84;5134332;27;20581;-79
2021/11/26 06:37:04;;;;;;;139.47;26.57;;;;;;;-145.69;100.00;72120.81;5134303;27;20204;-79
2021/11/26 06:39:33;;;;;;;149.00;30.33;;;;;;;-145.69;100.00;72120.81;5134320;27;20200;-78
2021/11/26 06:42:00;;;;;;;147.53;29.77;;;;;;;-145.69;100.00;72126.78;5134117;27;20205;-79
2021/11/26 06:44:27;;;;;;;140.33;28.03;;;;;;;-145.69;100.00;72118.81;5130368;27;20197;-79
2021/11/26 06:46:53;;;;;;;138.37;27.03;;;;;;;-145.69;100.00;72102.88;5113397;28;20202;-79
2021/11/26 06:49:20;;;;;;;142.87;28.00;;;;;;;-145.69;100.00;72094.94;5113601;28;20204;-78
2021/11/26 06:51:46;;;;;;;128.97;29.83;;;;;;;-145.69;100.00;72081.00;5113507;28;20590;-78
2021/11/26 06:54:13;;;;;;;122.10;28.53;;;;;;;-145.69;100.00;72071.03;5113676;28;20591;-78
2021/11/26 06:56:41;;;;;;;113.10;27.23;;;;;;;-145.69;100.00;72067.06;5113510;28;20204;-79
2021/11/26 06:59:08;;;;;;;119.20;28.83;;;;;;;-145.69;100.00;72067.06;5113234;28;20293;-78
2021/11/26 07:01:34;;;;;;;117.23;28.53;;;;;;;-145.69;100.00;72063.09;5113437;28;20262;-79
2021/11/26 07:04:01;;;;;;;118.07;28.03;;;;;;;-145.69;100.00;72059.09;5113441;28;20255;-79
2021/11/26 07:06:28;;;;;;;105.83;27.17;;;;;;;-145.69;100.00;72057.13;5113414;28;20675;-78
2021/11/26 07:08:55;;;;;;;102.10;25.83;;;;;;;-145.69;100.00;72059.09;5113279;28;20205;-79
2021/11/26 07:11:22;;;;;;;84.50;24.07;;;;;;;-145.69;100.00;72047.16;5113426;28;20209;-79
2021/11/26 07:13:49;;;;;;;104.80;25.90;;;;;;;-145.69;100.00;72051.16;5113061;28;20197;-78
2021/11/26 07:16:16;;;;;;;103.00;25.93;;;;;;;-145.69;100.00;72051.16;5113532;28;20251;-79
2021/11/26 07:18:45;;;;;;;96.03;24.93;;;;;;;-145.69;100.00;72069.06;5113395;28;20198;-79
2021/11/26 07:21:11;;;;;;;114.37;29.17;;;;;;;-145.69;100.00;72079.00;5113620;28;20685;-80
2021/11/26 07:23:38;;;;;;;108.87;28.00;;;;;;;-145.69;100.00;72088.97;5113424;28;20205;-79
2021/11/26 07:26:05;;;;;;;116.47;27.53;;;;;;;-145.69;100.00;72084.97;5113061;28;20209;-80
2021/11/26 07:28:31;;;;;;;100.57;26.57;;;;;;;-145.69;100.00;72071.03;5113067;28;20202;-79
2021/11/26 07:30:59;;;;;;;104.37;26.67;;;;;;;-145.69;100.00;72071.03;5115842;28;20209;-79
2021/11/26 07:33:26;;;;;;;92.20;24.17;;;;;;;-145.69;100.00;72063.09;5117310;28;20223;-80
2021/11/26 07:35:52;;;;;;;115.05;33.70;;;;;;;-145.69;100.00;72055.13;5116504;28;20454;-79
2021/11/26 07:38:19;;;;;;;95.03;26.10;;;;;;;-145.69;100.00;72039.19;5116694;27;20664;-78
2021/11/26 07:40:46;;;;;;;99.57;26.90;;;;;;;-145.69;100.00;72029.25;5116818;28;20236;-77
2021/11/26 07:43:12;;;;;;;90.40;23.93;;;;;;;-145.69;100.00;72015.31;5116976;28;20206;-77
2021/11/26 07:45:38;;;;;;;101.00;27.90;;;;;;;-145.69;100.00;72011.34;5116830;28;20205;-77
2021/11/26 07:48:06;;;;;;;90.83;24.73;;;;;;;-145.69;100.00;72007.34;5116700;28;20251;-77
2021/11/26 07:50:33;;;;;;;117.93;35.90;;;;;;;-145.69;100.00;71983.47;5116677;28;20202;-77
2021/11/26 07:53:00;;;;;;;96.87;27.77;;;;;;;-145.69;100.00;71967.56;5116440;28;20677;-78
2021/11/26 07:55:27;;;;;;;80.93;24.73;;;;;;;-145.69;100.00;71957.59;5116423;28;20263;-77
2021/11/26 07:57:53;;;;;;;117.43;36.87;;;;;;;-145.69;100.00;71955.63;5116647;28;20198;-77
2021/11/26 08:00:20;;;;;;;153.23;45.83;;;;;;;-145.69;100.00;71955.63;5116659;28;20221;-78
2021/11/26 08:02:46;;;;;;;145.37;41.27;;;;;;;-145.69;100.00;71967.56;5116412;28;20200;-77
2021/11/26 08:05:15;;;;;;;133.30;38.77;;;;;;;-145.69;100.00;71975.50;5116391;28;20201;-77
2021/11/26 08:07:41;;;;;;;87.17;27.10;;;;;;;-145.69;100.00;71959.59;5116186;28;20209;-77
2021/11/26 08:10:09;;;;;;;80.70;23.97;;;;;;;-145.69;100.00;71939.69;5116211;28;20201;-77
2021/11/26 08:12:40;;;;;;;70.27;21.93;;;;;;;-145.69;100.00;71927.75;5116322;28;20197;-77
2021/11/26 08:15:09;;;;;;;65.23;22.07;;;;;;;-145.69;100.00;71935.72;5116245;28;20626;-76
2021/11/26 08:17:35;;;;;;;90.43;28.80;;;;;;;-145.69;100.00;71915.81;5116012;28;20682;-77
2021/11/26 08:20:03;;;;;;;80.93;26.10;;;;;;;-145.69;100.00;71905.88;5115864;28;20233;-77
2021/11/26 08:22:31;;;;;;;77.37;24.40;;;;;;;-145.69;100.00;71887.94;5115896;28;20197;-77
2021/11/26 08:25:02;;;;;;;84.00;27.20;;;;;;;-145.69;100.00;71858.09;5116084;28;20205;-77
2021/11/26 08:27:30;;;;;;;83.47;25.53;;;;;;;-145.69;100.00;71876.00;5116107;28;20224;-77
2021/11/26 08:29:56;;;;;;;77.57;23.20;;;;;;;-145.69;100.00;71901.88;5116014;28;20216;-78
2021/11/26 08:32:23;;;;;;;104.20;30.90;;;;;;;-145.69;100.00;71895.91;5115710;28;20224;-78
2021/11/26 08:34:49;;;;;;;98.80;29.73;;;;;;;-145.69;100.00;71872.03;5115473;28;20201;-78
2021/11/26 08:37:16;;;;;;;77.93;23.83;;;;;;;-145.69;100.00;71842.19;5115817;28;20201;-77
2021/11/26 08:39:44;;;;;;;81.40;24.77;;;;;;;-145.69;100.00;71836.22;5115629;28;20193;-78
2021/11/26 08:42:10;;;;;;;71.67;22.93;;;;;;;-145.69;100.00;71824.25;5117257;27;20266;-78
2021/11/26 08:44:37;;;;;;;73.07;25.87;;;;;;;-145.69;100.00;71812.31;5115526;28;20220;-77
2021/11/26 08:47:03;;;;;;;75.33;23.53;;;;;;;-145.69;100.00;71808.34;5115537;28;20201;-78
2021/11/26 08:49:29;;;;;;;76.80;25.00;;;;;;;-145.69;100.00;71836.22;5115437;28;20250;-78
2021/11/26 08:51:57;;;;;;;79.13;25.37;;;;;;;-145.69;100.00;71850.13;5115374;28;20230;-78
2021/11/26 08:54:25;;;;;;;68.03;21.53;;;;;;;-145.69;100.00;71864.06;5115461;28;20201;-78
2021/11/26 08:56:56;;;;;;;78.70;22.07;;;;;;;-145.69;100.00;71858.09;5115751;28;20233;-78
2021/11/26 08:59:23;;;;;;;74.20;22.23;;;;;;;-145.69;100.00;71872.03;5115386;28;20200;-77
2021/11/26 09:01:53;;;;;;;75.83;23.27;;;;;;;-145.69;100.00;71883.97;5125583;27;20231;-77
2021/11/26 09:04:20;;;;;;;84.57;23.67;;;;;;;-145.69;100.00;71889.94;5135694;27;20197;-78
2021/11/26 09:06:48;;;;;;;76.33;22.53;;;;;;;-145.69;100.00;71880.00;5135639;27;20201;-77
2021/11/26 09:09:17;;;;;;;74.67;22.33;;;;;;;-145.69;100.00;71848.16;5135659;27;20240;-77
2021/11/26 09:11:44;;;;;;;70.47;22.00;;;;;;;-145.69;100.00;71856.09;5135767;27;20282;-78
2021/11/26 09:14:12;;;;;;;59.60;19.97;;;;;;;-145.69;100.00;71802.38;5135449;27;20201;-78
2021/11/26 09:16:39;;;;;;;69.80;21.20;;;;;;;-145.69;100.00;71762.56;5134984;27;20257;-78
2021/11/26 09:19:06;;;;;;;81.50;29.88;;;;;;;-145.69;100.00;71756.59;5114044;27;20439;-79
2021/11/26 09:21:33;;;;;;;70.07;22.67;;;;;;;-145.69;100.00;71754.63;5114851;28;20232;-78
2021/11/26 09:23:59;;;;;;;61.03;21.97;;;;;;;-145.69;100.00;71716.81;5114970;28;20293;-79
2021/11/26 09:26:30;;;;;;;63.07;21.33;;;;;;;-145.69;100.00;71692.94;5114792;28;20556;-77
2021/11/26 09:28:57;;;;;;;65.87;22.30;;;;;;;-145.69;100.00;71661.09;5114822;28;20656;-77
2021/11/26 09:31:25;;;;;;;64.13;20.83;;;;;;;-145.69;100.00;71637.19;5114988;28;20197;-77
2021/11/26 09:33:52;;;;;;;61.97;20.53;;;;;;;-145.69;100.00;71657.09;5114706;27;20223;-78
2021/11/26 09:36:22;;;;;;;64.03;20.00;;;;;;;-145.69;100.00;71649.16;5114601;28;20613;-79
2021/11/26 09:38:49;;;;;;;54.87;18.27;;;;;;;-145.69;100.00;71651.13;5114489;28;20293;-79
2021/11/26 09:41:18;;;;;;;53.80;19.03;;;;;;;-145.69;100.00;71659.09;5114340;28;20361;-79
2021/11/26 09:43:47;;;;;;;56.17;19.07;;;;;;;-145.69;100.00;71661.09;5114542;28;20580;-79
2021/11/26 09:46:14;;;;;;;53.30;18.47;;;;;;;-145.69;100.00;71645.16;5114691;28;20201;-79
2021/11/26 09:48:43;;;;;;;45.83;16.80;;;;;;;-145.69;100.00;71617.31;5114460;28;20201;-78
2021/11/26 09:51:11;;;;;;;56.23;19.67;;;;;;;-145.69;100.00;71625.25;5114298;28;20198;-79
2021/11/26 09:53:38;;;;;;;47.50;16.80;;;;;;;-145.69;100.00;71643.19;5114149;28;20202;-78
2021/11/26 09:56:07;;;;;;;40.13;14.43;;;;;;;-145.69;100.00;71641.19;5113997;28;20197;-78
2021/11/26 09:58:36;;;;;;;46.07;14.67;;;;;;;-145.69;100.00;71651.13;5113986;28;20203;-78
2021/11/26 10:01:05;;;;;;;35.97;12.77;;;;;;;-145.69;100.00;71677.00;5113821;28;20221;-78
2021/11/26 10:03:41;;;;;;;36.27;13.20;;;;;;;-145.69;100.00;71647.16;5114029;28;20201;-78
2021/11/26 10:06:21;;;;;;;30.87;11.67;;;;;;;-145.69;100.00;71633.22;5113766;28;20250;-79
2021/11/26 10:08:58;;;;;;;37.10;13.63;;;;;;;-145.69;100.00;71633.22;5113655;28;20201;-79
2021/11/26 10:11:26;;;;;;;29.27;10.50;;;;;;;-145.69;100.00;71621.28;5113695;28;20201;-79
2021/11/26 10:13:52;;;;;;;27.87;9.97;;;;;;;-145.69;100.00;71585.47;5114166;28;20197;-79
2021/11/26 10:16:22;;;;;;;23.27;10.17;;;;;;;-145.69;100.00;71541.69;5113974;28;20197;-79
2021/11/26 10:18:51;;;;;;;25.40;10.20;;;;;;;-145.69;100.00;71559.59;5113826;28;20225;-79
2021/11/26 10:21:24;;;;;;;17.77;7.60;;;;;;;-145.69;100.00;71529.75;5113758;28;20228;-79
2021/11/26 10:23:54;;;;;;;24.67;10.47;;;;;;;-145.69;100.00;71533.72;5113815;28;20651;-79
2021/11/26 10:26:23;;;;;;;21.70;8.73;;;;;;;-145.69;100.00;71531.75;5113757;28;20656;-79
2021/11/26 10:28:55;;;;;;;22.57;9.13;;;;;;;-145.69;100.00;71527.75;5113955;28;20205;-79
2021/11/26 10:31:24;;;;;;;22.83;8.40;;;;;;;-145.69;100.00;71505.88;5113784;28;20202;-79
2021/11/26 10:33:53;;;;;;;19.60;8.30;;;;;;;-145.69;100.00;71549.66;5116102;27;20678;-79
2021/11/26 10:36:21;;;;;;;25.40;9.23;;;;;;;-145.69;100.00;71525.78;5113746;28;20648;-79
2021/11/26 10:38:47;;;;;;;18.63;7.33;;;;;;;-145.69;100.00;71497.91;5113416;28;20868;-80
2021/11/26 10:41:18;;;;;;;18.83;8.13;;;;;;;-145.69;100.00;71529.75;5113588;28;20232;-79
2021/11/26 10:43:52;;;;;;;18.70;8.30;;;;;;;-145.69;100.00;71545.66;5113714;27;20254;-79
2021/11/26 10:58:03;;;;;;;21.80;8.03;;;;;;;-145.69;100.00;71460.09;5113556;28;20201;-79
2021/11/26 11:00:31;;;;;;;18.37;7.83;;;;;;;-145.69;100.00;71454.13;5113363;28;20197;-79
2021/11/26 11:03:01;;;;;;;17.87;7.60;;;;;;;-145.69;100.00;71454.13;5113083;28;20224;-79